createdAt,value
2022-11-25T00:01:54.921Z,1.85
2022-11-25T00:04:22.781Z,1.10
2022-11-25T00:06:50.546Z,1.20
2022-11-25T00:09:18.329Z,1.42
2022-11-25T00:11:46.159Z,0.85
2022-11-25T00:14:16.652Z,1.10
2022-11-25T00:16:48.712Z,0.90
2022-11-25T00:19:17.003Z,1.45
2022-11-25T00:21:44.828Z,1.30
2022-11-25T00:24:15.899Z,1.23
2022-11-25T00:26:43.790Z,1.38
2022-11-25T00:29:12.910Z,1.20
2022-11-25T00:31:42.077Z,1.65
2022-11-25T00:34:15.491Z,2.17
2022-11-25T00:36:43.834Z,1.40
2022-11-25T00:39:15.225Z,1.92
2022-11-25T00:42:06.476Z,1.50
2022-11-25T00:44:40.198Z,1.58
2022-11-25T00:47:11.008Z,1.23
2022-11-25T00:49:41.745Z,1.52
2022-11-25T00:52:10.788Z,1.08
2022-11-25T00:54:38.695Z,1.08
2022-11-25T00:57:06.671Z,1.02
2022-11-25T00:59:34.641Z,1.10
2022-11-25T01:02:02.645Z,1.60
2022-11-25T01:04:36.728Z,1.42
2022-11-25T01:07:06.157Z,1.42
2022-11-25T01:09:37.613Z,1.15
2022-11-25T01:12:06.513Z,2.05
2022-11-25T01:14:35.514Z,1.35
2022-11-25T01:17:03.881Z,1.17
2022-11-25T01:19:34.432Z,1.00
2022-11-25T01:22:02.253Z,0.95
2022-11-25T01:24:31.424Z,1.20
2022-11-25T01:26:59.345Z,1.27
2022-11-25T01:29:30.289Z,1.23
2022-11-25T01:31:58.371Z,1.85
2022-11-25T01:34:28.294Z,0.90
2022-11-25T01:36:58.266Z,1.52
2022-11-25T01:39:32.107Z,1.42
2022-11-25T01:42:05.074Z,1.08
2022-11-25T01:44:34.786Z,1.00
2022-11-25T01:47:11.678Z,1.10
2022-11-25T01:49:43.237Z,1.27
2022-11-25T01:52:17.273Z,1.40
2022-11-25T01:54:51.497Z,1.17
2022-11-25T01:57:25.751Z,1.05
2022-11-25T01:59:59.366Z,1.20
2022-11-25T02:02:27.706Z,1.10
2022-11-25T02:04:56.351Z,1.10
2022-11-25T02:07:30.512Z,0.98
2022-11-25T02:09:59.553Z,1.60
2022-11-25T02:12:30.376Z,1.33
2022-11-25T02:15:00.160Z,1.10
2022-11-25T02:17:28.169Z,1.20
2022-11-25T02:20:03.076Z,1.45
2022-11-25T02:22:45.181Z,1.42
2022-11-25T02:25:17.864Z,1.00
2022-11-25T02:27:49.611Z,0.90
2022-11-25T02:30:17.974Z,1.55
2022-11-25T02:32:46.606Z,1.52
2022-11-25T02:35:42.532Z,1.00
2022-11-25T02:38:13.277Z,0.80
2022-11-25T02:40:47.258Z,1.38
2022-11-25T02:43:15.890Z,0.63
2022-11-25T02:45:52.733Z,0.80
2022-11-25T02:48:34.480Z,1.13
2022-11-25T02:51:10.996Z,0.80
2022-11-25T02:53:39.795Z,1.10
2022-11-25T02:56:10.523Z,0.70
2022-11-25T02:58:39.684Z,1.13
2022-11-25T03:01:09.709Z,0.70
2022-11-25T03:03:37.863Z,0.75
2022-11-25T03:06:07.882Z,0.73
2022-11-25T03:08:36.059Z,0.90
2022-11-25T03:11:07.450Z,1.02
2022-11-25T03:13:36.875Z,0.98
2022-11-25T03:16:05.109Z,1.00
2022-11-25T03:18:33.341Z,0.85
2022-11-25T03:21:01.455Z,0.85
2022-11-25T03:23:29.351Z,0.98
2022-11-25T03:25:57.821Z,0.90
2022-11-25T03:28:25.699Z,0.95
2022-11-25T03:30:55.039Z,0.90
2022-11-25T03:33:25.665Z,1.20
2022-11-25T03:35:53.544Z,1.35
2022-11-25T03:38:21.839Z,1.23
2022-11-25T03:40:50.315Z,1.38
2022-11-25T03:43:19.164Z,0.93
2022-11-25T03:45:51.223Z,0.90
2022-11-25T03:48:20.626Z,0.50
2022-11-25T03:50:49.407Z,0.75
2022-11-25T03:53:17.276Z,0.80
2022-11-25T03:55:45.373Z,1.08
2022-11-25T03:58:13.399Z,1.40
2022-11-25T04:00:41.362Z,1.05
2022-11-25T04:03:09.920Z,1.40
2022-11-25T04:05:42.802Z,1.10
2022-11-25T04:08:10.667Z,0.95
2022-11-25T04:10:39.709Z,0.98
2022-11-25T04:13:07.536Z,1.60
2022-11-25T04:15:46.265Z,1.20
2022-11-25T04:18:14.878Z,0.77
2022-11-25T04:20:45.007Z,0.63
2022-11-25T04:23:14.615Z,0.93
2022-11-25T04:25:51.079Z,1.27
2022-11-25T04:28:31.977Z,1.00
2022-11-25T04:31:00.186Z,1.20
2022-11-25T04:33:29.092Z,1.20
2022-11-25T04:35:58.420Z,0.85
2022-11-25T04:38:26.512Z,1.77
2022-11-25T04:40:57.147Z,1.05
2022-11-25T04:43:25.263Z,1.40
2022-11-25T04:46:35.729Z,1.95
2022-11-25T04:49:04.158Z,1.60
2022-11-25T04:51:39.300Z,1.70
2022-11-25T04:54:33.572Z,1.60
2022-11-25T04:57:02.045Z,1.10
2022-11-25T04:59:42.779Z,1.45
2022-11-25T05:02:21.480Z,0.90
2022-11-25T05:04:59.963Z,1.20
2022-11-25T05:07:30.934Z,1.40
2022-11-25T05:09:59.339Z,1.30
2022-11-25T05:12:55.915Z,1.00
2022-11-25T05:15:24.905Z,1.40
2022-11-25T05:17:54.528Z,1.15
2022-11-25T05:20:38.007Z,1.10
2022-11-25T05:23:07.546Z,1.00
2022-11-25T05:25:38.395Z,1.38
2022-11-25T05:28:25.262Z,1.10
2022-11-25T05:30:54.049Z,1.13
2022-11-25T05:33:22.474Z,1.25
2022-11-25T05:35:56.395Z,1.30
2022-11-25T05:38:27.481Z,1.23
2022-11-25T05:41:00.819Z,1.20
2022-11-25T05:43:29.385Z,1.08
2022-11-25T05:45:57.736Z,1.23
2022-11-25T05:48:26.324Z,1.90
2022-11-25T05:50:54.302Z,1.33
2022-11-25T05:53:24.525Z,0.90
2022-11-25T05:56:04.680Z,1.00
2022-11-25T05:59:02.518Z,0.95
2022-11-25T06:01:46.627Z,0.73
2022-11-25T06:04:15.506Z,1.45
2022-11-25T06:06:43.444Z,1.40
2022-11-25T06:09:11.928Z,0.98
2022-11-25T06:11:41.257Z,0.93
2022-11-25T06:14:10.044Z,0.85
2022-11-25T06:16:38.163Z,1.00
2022-11-25T06:19:29.258Z,0.93
2022-11-25T06:21:58.775Z,1.23
2022-11-25T06:24:30.810Z,1.40
2022-11-25T06:27:05.161Z,1.23
2022-11-25T06:29:35.752Z,1.08
2022-11-25T06:32:04.663Z,0.75
2022-11-25T06:34:36.577Z,1.20
2022-11-25T06:37:07.592Z,1.00
2022-11-25T06:39:35.549Z,0.68
2022-11-25T06:42:07.523Z,1.15
2022-11-25T06:44:35.565Z,0.90
2022-11-25T06:47:03.662Z,0.75
2022-11-25T06:49:31.588Z,0.57
2022-11-25T06:51:59.442Z,0.75
2022-11-25T06:54:27.513Z,1.15
2022-11-25T06:56:55.648Z,0.93
2022-11-25T06:59:33.525Z,0.65
2022-11-25T07:02:05.223Z,0.68
2022-11-25T07:04:36.266Z,0.70
2022-11-25T07:07:08.492Z,0.80
2022-11-25T07:09:36.666Z,0.82
2022-11-25T07:12:05.777Z,0.70
2022-11-25T07:14:35.234Z,0.98
2022-11-25T07:17:07.402Z,1.10
2022-11-25T07:19:38.828Z,0.73
2022-11-25T07:22:06.745Z,0.52
2022-11-25T07:24:35.210Z,0.70
2022-11-25T07:27:05.817Z,1.05
2022-11-25T07:32:26.860Z,0.75
2022-11-25T07:34:54.826Z,0.88
2022-11-25T07:37:22.643Z,1.00
2022-11-25T07:39:53.388Z,0.85
2022-11-25T07:42:21.343Z,0.90
2022-11-25T07:44:51.267Z,0.80
2022-11-25T07:47:40.813Z,0.52
2022-11-25T07:50:10.184Z,0.65
2022-11-25T07:52:40.243Z,0.60
2022-11-25T07:55:09.125Z,0.50
2022-11-25T07:57:37.116Z,0.70
2022-11-25T08:00:08.464Z,0.60
2022-11-25T08:02:42.467Z,0.80
2022-11-25T08:05:12.138Z,1.35
2022-11-25T08:07:40.338Z,1.10
2022-11-25T08:10:09.121Z,0.90
2022-11-25T08:12:37.006Z,1.00
2022-11-25T08:15:10.064Z,1.25
2022-11-25T08:17:38.214Z,0.73
2022-11-25T08:20:07.623Z,1.00
2022-11-25T08:22:35.786Z,0.88
2022-11-25T08:25:11.442Z,0.65
2022-11-25T08:27:44.154Z,1.23
2022-11-25T08:30:14.016Z,0.80
2022-11-25T08:32:42.154Z,0.80
2022-11-25T08:35:10.489Z,0.93
2022-11-25T08:37:44.778Z,0.82
2022-11-25T08:40:13.821Z,0.50
2022-11-25T08:42:41.706Z,1.10
2022-11-25T08:45:12.775Z,0.60
2022-11-25T08:47:42.051Z,0.98
2022-11-25T08:50:11.768Z,1.20
2022-11-25T08:52:39.832Z,1.27
2022-11-25T08:55:10.973Z,1.00
2022-11-25T08:57:39.107Z,0.77
2022-11-25T09:00:08.601Z,0.70
2022-11-25T09:02:36.941Z,0.80
2022-11-25T09:05:07.636Z,0.85
2022-11-25T09:07:43.103Z,0.70
2022-11-25T09:10:16.163Z,0.60
2022-11-25T09:12:44.129Z,0.65
2022-11-25T09:15:12.719Z,0.80
2022-11-25T09:17:40.701Z,0.70
2022-11-25T09:20:11.353Z,0.80
2022-11-25T09:22:39.225Z,0.82
2022-11-25T09:25:08.252Z,0.85
2022-11-25T09:27:36.170Z,0.60
2022-11-25T09:30:04.310Z,0.88
2022-11-25T09:32:39.843Z,0.88
2022-11-25T09:35:08.252Z,0.90
2022-11-25T09:37:37.696Z,0.98
2022-11-25T09:40:19.755Z,0.57
2022-11-25T09:43:12.569Z,0.70
2022-11-25T09:46:11.695Z,0.52
2022-11-25T09:49:02.969Z,0.82
2022-11-25T09:51:43.125Z,1.00
2022-11-25T09:54:20.327Z,0.70
2022-11-25T09:56:54.573Z,0.50
2022-11-25T10:01:58.565Z,0.40
2022-11-25T10:04:31.408Z,0.60
2022-11-25T10:07:11.716Z,0.95
2022-11-25T10:09:48.438Z,0.50
2022-11-25T10:12:25.715Z,0.77
2022-11-25T10:15:08.218Z,0.60
2022-11-25T10:17:44.339Z,0.60
2022-11-25T10:20:19.198Z,0.70
2022-11-25T10:22:50.186Z,1.05
2022-11-25T10:25:23.764Z,0.80
2022-11-25T10:27:57.980Z,0.82
2022-11-25T10:33:04.567Z,0.50
2022-11-25T10:35:36.922Z,0.88
2022-11-25T10:38:15.807Z,0.77
2022-11-25T10:40:50.581Z,1.00
2022-11-25T10:43:19.204Z,1.35
2022-11-25T10:45:53.800Z,1.30
2022-11-25T10:48:41.405Z,1.25
2022-11-25T10:51:31.297Z,1.13
2022-11-25T10:54:27.156Z,1.30
2022-11-25T10:56:58.850Z,1.27
2022-11-25T10:59:29.862Z,1.08
2022-11-25T11:02:19.134Z,1.23
2022-11-25T11:04:54.758Z,1.35
2022-11-25T11:07:23.854Z,0.98
2022-11-25T11:09:52.353Z,1.60
2022-11-25T11:12:24.074Z,1.27
2022-11-25T11:14:54.300Z,1.15
2022-11-25T11:17:37.183Z,1.02
2022-11-25T11:20:17.617Z,1.58
2022-11-25T11:23:09.139Z,1.42
2022-11-25T11:25:39.576Z,1.00
2022-11-25T11:28:32.921Z,1.05
2022-11-25T11:31:03.732Z,1.15
2022-11-25T11:33:37.302Z,1.90
2022-11-25T11:36:18.872Z,1.15
2022-11-25T11:38:54.887Z,0.70
2022-11-25T11:41:37.852Z,1.00
2022-11-25T11:44:19.974Z,1.48
2022-11-25T11:47:09.172Z,1.20
2022-11-25T11:50:04.185Z,0.80
2022-11-25T11:55:27.689Z,2.42
2022-11-25T11:58:05.842Z,1.58
2022-11-25T12:00:46.693Z,1.50
2022-11-25T12:03:17.889Z,1.50
2022-11-25T12:05:47.853Z,1.73
2022-11-25T12:08:23.725Z,1.48
2022-11-25T12:10:56.026Z,1.27
2022-11-25T12:13:28.968Z,1.02
2022-11-25T12:16:10.119Z,1.50
2022-11-25T12:18:45.046Z,1.60
2022-11-25T12:21:26.992Z,1.10
2022-11-25T12:24:03.859Z,1.15
2022-11-25T12:26:40.644Z,1.77
2022-11-25T12:29:13.495Z,1.60
2022-11-25T12:31:50.995Z,1.52
2022-11-25T12:34:27.586Z,1.83
2022-11-25T12:37:10.633Z,1.63
2022-11-25T12:40:02.870Z,1.75
2022-11-25T12:42:33.642Z,1.90
2022-11-25T12:45:06.763Z,1.35
2022-11-25T12:47:36.128Z,1.52
2022-11-25T12:50:04.062Z,1.83
2022-11-25T12:52:49.773Z,2.00
2022-11-25T12:55:21.018Z,1.90
2022-11-25T12:58:34.980Z,1.20
2022-11-25T13:01:45.575Z,1.63
2022-11-25T13:05:07.594Z,1.80
2022-11-25T13:07:55.804Z,1.35
2022-11-25T13:10:39.156Z,1.98
2022-11-25T13:13:40.168Z,2.30
2022-11-25T13:16:10.004Z,1.67
2022-11-25T13:18:43.720Z,1.27
2022-11-25T13:21:14.906Z,0.97
2022-11-25T13:23:52.155Z,0.93
2022-11-25T13:26:50.745Z,1.40
2022-11-25T13:30:07.891Z,1.25
2022-11-25T13:32:41.269Z,1.55
2022-11-25T13:35:36.304Z,1.23
2022-11-25T13:40:39.490Z,0.98
2022-11-25T13:43:22.756Z,0.98
2022-11-25T13:45:55.017Z,1.63
2022-11-25T13:48:28.281Z,0.88
2022-11-25T13:51:17.840Z,1.00
2022-11-25T13:53:54.931Z,0.98
2022-11-25T13:56:30.337Z,0.70
2022-11-25T13:59:36.213Z,0.88
2022-11-25T14:02:45.222Z,1.17
2022-11-25T14:05:48.623Z,1.48
2022-11-25T14:08:23.107Z,1.38
2022-11-25T14:11:15.308Z,1.33
2022-11-25T14:14:05.566Z,1.25
2022-11-25T14:16:56.265Z,1.67
2022-11-25T14:20:00.428Z,1.25
2022-11-25T14:22:44.539Z,2.50
2022-11-25T14:25:20.586Z,1.50
2022-11-25T14:28:09.482Z,1.45
2022-11-25T14:30:53.037Z,1.42
2022-11-25T14:33:26.981Z,2.13
2022-11-25T14:36:01.800Z,2.38
2022-11-25T14:38:41.512Z,1.80
2022-11-25T14:41:15.780Z,1.55
2022-11-25T14:43:51.707Z,2.10
2022-11-25T14:46:22.230Z,1.52
2022-11-25T14:48:55.566Z,2.13
2022-11-25T14:51:26.096Z,1.87
2022-11-25T14:53:54.724Z,1.83
2022-11-25T14:56:27.582Z,2.50
2022-11-25T14:59:00.737Z,1.83
2022-11-25T15:01:30.235Z,2.00
2022-11-25T15:04:07.133Z,1.60
2022-11-25T15:06:37.378Z,1.85
2022-11-25T15:09:21.379Z,1.92
2022-11-25T15:11:52.332Z,1.77
2022-11-25T15:14:26.730Z,1.70
2022-11-25T15:16:56.031Z,1.60
2022-11-25T15:19:32.128Z,1.80
2022-11-25T15:24:55.545Z,1.77
2022-11-25T15:27:26.447Z,1.40
2022-11-25T15:29:58.505Z,1.60
2022-11-25T15:32:29.210Z,1.75
2022-11-25T15:34:59.339Z,1.88
2022-11-25T15:37:27.721Z,1.92
2022-11-25T15:40:31.168Z,2.40
2022-11-25T15:43:01.538Z,2.17
2022-11-25T15:45:36.677Z,1.83
2022-11-25T15:48:05.389Z,2.25
2022-11-25T15:50:35.199Z,1.55
2022-11-25T15:53:03.494Z,1.88
2022-11-25T15:55:34.593Z,2.40
2022-11-25T15:58:12.165Z,2.10
2022-11-25T16:01:00.346Z,2.13
2022-11-25T16:03:28.537Z,2.50
2022-11-25T16:05:57.388Z,2.50
2022-11-25T16:08:31.868Z,2.60
2022-11-25T16:11:15.351Z,2.47
2022-11-25T16:13:45.785Z,3.50
2022-11-25T16:16:21.372Z,2.33
2022-11-25T16:18:56.518Z,2.22
2022-11-25T16:21:26.494Z,2.45
2022-11-25T16:23:57.416Z,2.03
2022-11-25T16:26:29.305Z,2.38
2022-11-25T16:28:59.059Z,2.13
2022-11-25T16:31:35.702Z,2.75
2022-11-25T16:34:16.185Z,2.03
2022-11-25T16:36:46.960Z,2.08
2022-11-25T16:39:15.277Z,2.45
2022-11-25T16:41:48.278Z,2.10
2022-11-25T16:44:19.977Z,2.58
2022-11-25T16:46:49.756Z,3.00
2022-11-25T16:49:19.390Z,2.60
2022-11-25T16:51:53.135Z,2.55
2022-11-25T16:54:23.090Z,2.42
2022-11-25T16:56:53.318Z,3.35
2022-11-25T16:59:27.156Z,2.88
2022-11-25T17:02:00.304Z,2.45
2022-11-25T17:04:28.868Z,2.70
2022-11-25T17:07:31.009Z,2.70
2022-11-25T17:09:46.543Z,2.15
2022-11-25T17:12:18.773Z,2.88
2022-11-25T17:14:48.996Z,3.72
2022-11-25T17:17:24.746Z,2.50
2022-11-25T17:19:53.347Z,2.50
2022-11-25T17:22:24.178Z,2.40
2022-11-25T17:24:54.373Z,2.45
2022-11-25T17:27:26.168Z,2.10
2022-11-25T17:30:04.032Z,1.77
2022-11-25T17:32:33.859Z,1.88
2022-11-25T17:35:04.981Z,2.53
2022-11-25T17:37:33.099Z,2.30
2022-11-25T17:40:01.006Z,2.63
2022-11-25T17:42:31.939Z,3.28
2022-11-25T17:45:00.985Z,2.85
2022-11-25T17:47:29.065Z,2.42
2022-11-25T17:49:58.945Z,2.42
2022-11-25T17:52:26.887Z,3.15
2022-11-25T17:54:54.715Z,2.72
2022-11-25T17:57:29.372Z,2.92
2022-11-25T17:59:57.663Z,2.92
2022-11-25T18:02:25.813Z,3.45
2022-11-25T18:04:58.275Z,2.40
2022-11-25T18:07:26.408Z,2.85
2022-11-25T18:09:54.506Z,2.75
2022-11-25T18:12:27.643Z,2.40
2022-11-25T18:14:58.101Z,2.72
2022-11-25T18:17:28.793Z,2.47
2022-11-25T18:19:58.127Z,2.50
2022-11-25T18:22:26.165Z,2.67
2022-11-25T18:24:54.631Z,2.92
2022-11-25T18:27:26.951Z,2.45
2022-11-25T18:30:02.648Z,2.60
2022-11-25T18:32:30.923Z,2.60
2022-11-25T18:35:03.498Z,2.20
2022-11-25T18:37:31.586Z,2.13
2022-11-25T18:40:02.664Z,2.38
2022-11-25T18:42:31.002Z,2.35
2022-11-25T18:45:06.227Z,2.63
2022-11-25T18:47:34.253Z,2.78
2022-11-25T18:50:14.723Z,2.88
2022-11-25T18:52:43.110Z,2.50
2022-11-25T18:55:14.031Z,2.13
2022-11-25T18:57:45.262Z,2.05
2022-11-25T19:00:33.553Z,2.15
2022-11-25T19:03:02.298Z,2.75
2022-11-25T19:05:34.519Z,2.70
2022-11-25T19:08:02.455Z,2.67
2022-11-25T19:10:33.324Z,2.92
2022-11-25T19:13:03.955Z,2.40
2022-11-25T19:15:33.055Z,2.40
2022-11-25T19:18:04.301Z,4.28
2022-11-25T19:20:36.072Z,2.92
2022-11-25T19:23:17.053Z,2.30
2022-11-25T19:25:45.714Z,3.25
2022-11-25T19:28:16.157Z,3.13
2022-11-25T19:30:46.580Z,2.70
2022-11-25T19:33:25.819Z,2.53
2022-11-25T19:35:55.325Z,2.30
2022-11-25T19:38:33.044Z,3.05
2022-11-25T19:41:02.881Z,2.90
2022-11-25T19:43:31.088Z,2.08
2022-11-25T19:45:59.617Z,2.72
2022-11-25T19:48:30.346Z,3.00
2022-11-25T19:51:04.768Z,2.38
2022-11-25T19:56:04.402Z,1.58
2022-11-25T19:58:33.189Z,1.92
2022-11-25T20:01:05.991Z,2.05
2022-11-25T20:03:36.765Z,1.95
2022-11-25T20:06:16.117Z,2.42
2022-11-25T20:08:44.087Z,2.90
2022-11-25T20:11:14.010Z,3.10
2022-11-25T20:13:42.128Z,2.50
2022-11-25T20:16:16.478Z,1.98
2022-11-25T20:18:57.136Z,2.83
2022-11-25T20:21:31.018Z,3.00
2022-11-25T20:24:04.883Z,3.33
2022-11-25T20:26:36.341Z,2.72
2022-11-25T20:29:15.028Z,2.85
2022-11-25T20:31:43.052Z,3.33
2022-11-25T20:34:11.198Z,3.25
2022-11-25T20:36:43.159Z,3.15
2022-11-25T20:39:18.082Z,2.15
2022-11-25T20:41:49.529Z,2.17
2022-11-25T20:44:18.847Z,2.20
2022-11-25T20:46:46.783Z,2.00
2022-11-25T20:49:22.121Z,3.75
2022-11-25T20:51:51.776Z,3.15
2022-11-25T20:54:25.937Z,2.67
2022-11-25T20:56:56.461Z,2.45
2022-11-25T20:59:31.323Z,1.40
2022-11-25T21:02:01.522Z,2.30
2022-11-25T21:04:39.487Z,2.17
2022-11-25T21:07:15.843Z,2.60
2022-11-25T21:09:44.822Z,2.08
2022-11-25T21:12:19.105Z,2.20
2022-11-25T21:14:47.899Z,2.38
2022-11-25T21:17:15.868Z,4.25
2022-11-25T21:19:46.101Z,2.88
2022-11-25T21:22:15.823Z,2.50
2022-11-25T21:24:46.834Z,3.97
2022-11-25T21:27:17.376Z,2.47
2022-11-25T21:29:48.270Z,4.03
2022-11-25T21:32:21.942Z,2.78
2022-11-25T21:34:50.108Z,2.38
2022-11-25T21:37:27.854Z,3.22
2022-11-25T21:40:00.125Z,3.05
2022-11-25T21:42:30.410Z,3.10
2022-11-25T21:45:01.021Z,3.50
2022-11-25T21:47:31.804Z,3.13
2022-11-25T21:50:00.130Z,3.42
2022-11-25T21:52:29.363Z,4.20
2022-11-25T21:54:57.811Z,4.00
2022-11-25T21:57:29.406Z,3.97
2022-11-25T21:59:57.536Z,3.50
2022-11-25T22:02:28.679Z,4.30
2022-11-25T22:04:59.000Z,3.63
2022-11-25T22:07:30.764Z,3.55
2022-11-25T22:10:00.386Z,4.07
2022-11-25T22:12:30.876Z,2.70
2022-11-25T22:15:00.444Z,3.00
2022-11-25T22:17:30.375Z,2.58
2022-11-25T22:19:58.499Z,3.38
2022-11-25T22:22:26.465Z,3.10
2022-11-25T22:24:54.352Z,3.42
2022-11-25T22:27:28.317Z,3.25
2022-11-25T22:29:56.812Z,3.53
2022-11-25T22:32:26.947Z,3.20
2022-11-25T22:34:58.120Z,2.90
2022-11-25T22:37:28.308Z,2.92
2022-11-25T22:39:56.228Z,2.80
2022-11-25T22:42:28.413Z,2.85
2022-11-25T22:44:58.455Z,3.53
2022-11-25T22:47:30.021Z,4.82
2022-11-25T22:49:57.978Z,3.00
2022-11-25T22:52:28.859Z,2.72
2022-11-25T22:55:23.673Z,2.47
2022-11-25T22:57:54.552Z,2.65
2022-11-25T23:00:24.915Z,4.38
2022-11-25T23:02:55.452Z,2.80
2022-11-25T23:05:31.846Z,2.90
2022-11-25T23:08:00.402Z,3.17
2022-11-25T23:10:31.088Z,3.90
2022-11-25T23:13:00.568Z,3.63
2022-11-25T23:15:30.654Z,3.25
2022-11-25T23:18:00.721Z,2.85
2022-11-25T23:20:31.485Z,3.63
2022-11-25T23:22:59.979Z,3.17
2022-11-25T23:25:28.059Z,3.30
2022-11-25T23:27:56.093Z,3.45
2022-11-25T23:30:25.334Z,4.43
2022-11-25T23:32:54.674Z,4.57
2022-11-25T23:35:29.351Z,3.80
2022-11-25T23:37:59.225Z,5.40
2022-11-25T23:40:28.042Z,3.17
2022-11-25T23:43:02.842Z,5.05
2022-11-25T23:45:32.098Z,3.53
2022-11-25T23:48:00.224Z,3.35
2022-11-25T23:50:32.287Z,3.70
2022-11-25T23:53:04.307Z,2.80
2022-11-25T23:55:34.663Z,2.97
2022-11-25T23:58:04.181Z,2.70
